Time;durP1;ratioP1;P1;durP2;ratioP2;P2;SDS_P1;SDS_P2;PMS_P1;PMS_P2;Temp;Humidity;BMP_temperature;BMP_pressure;BME280_temperature;BME280_humidity;BME280_pressure;Samples;Min_cycle;Max_cycle;Signal;HPM_P1;HPM_P2
2021/04/07 00:02:19;;;;;;;29.90;15.00;;;;;;;5.62;81.45;99541.45;1749364;82;20971;-43
2021/04/07 00:05:08;;;;;;;23.90;14.03;;;;;;;5.63;81.58;99533.32;1749405;82;21002;-42
2021/04/07 00:07:36;;;;;;;31.20;17.40;;;;;;;5.65;81.63;99538.83;1749406;81;21010;-40
2021/04/07 00:10:10;;;;;;;30.12;17.73;;;;;;;5.63;81.67;99536.72;1749597;82;20913;-41
2021/04/07 00:12:41;;;;;;;25.15;15.70;;;;;;;5.61;82.00;99534.61;1749588;81;21555;-42
2021/04/07 00:15:15;;;;;;;24.20;15.32;;;;;;;5.63;81.89;99534.61;1749357;81;21078;-42
2021/04/07 00:17:43;;;;;;;29.23;16.37;;;;;;;5.64;82.15;99538.42;1749549;81;20998;-42
2021/04/07 00:20:16;;;;;;;30.55;16.60;;;;;;;5.60;82.26;99531.21;1749353;82;21050;-42
2021/04/07 00:22:43;;;;;;;31.00;18.85;;;;;;;5.61;82.29;99527.77;1749492;82;21603;-43
2021/04/07 00:25:11;;;;;;;30.50;17.27;;;;;;;5.61;82.29;99527.77;1749352;82;21196;-41
2021/04/07 00:27:41;;;;;;;27.10;16.05;;;;;;;5.61;82.55;99524.34;1749295;82;21014;-42
2021/04/07 00:30:12;;;;;;;40.33;16.45;;;;;;;5.61;82.66;99517.92;1749395;82;21086;-43
2021/04/07 00:32:40;;;;;;;33.40;17.57;;;;;;;5.61;82.79;99522.64;1749339;81;21006;-41
2021/04/07 00:35:10;;;;;;;33.58;18.15;;;;;;;5.61;82.70;99521.35;1745528;82;21034;-41
2021/04/07 00:37:38;;;;;;;32.40;16.25;;;;;;;5.62;82.71;99524.75;1719557;83;21211;-41
2021/04/07 00:40:07;;;;;;;23.92;13.95;;;;;;;5.63;82.73;99523.88;1719517;83;20959;-42
2021/04/07 00:42:37;;;;;;;29.48;17.17;;;;;;;5.64;82.73;99517.88;1719571;83;21023;-42
2021/04/07 00:45:07;;;;;;;30.10;17.87;;;;;;;5.65;82.89;99511.88;1719527;83;20911;-42
2021/04/07 00:47:34;;;;;;;27.73;15.38;;;;;;;5.65;83.04;99516.17;1719512;83;21073;-42
2021/04/07 00:50:04;;;;;;;24.40;14.60;;;;;;;5.64;82.86;99512.74;1691453;83;21349;-41
2021/04/07 00:52:31;;;;;;;30.97;15.28;;;;;;;5.65;82.99;99505.45;1719483;83;21030;-42
2021/04/07 00:55:01;;;;;;;28.50;16.42;;;;;;;5.65;82.90;99504.63;1720170;83;21036;-42
2021/04/07 00:57:29;;;;;;;29.98;17.42;;;;;;;5.65;82.99;99502.05;1720288;83;20963;-42
2021/04/07 00:59:56;;;;;;;30.05;16.65;;;;;;;5.65;82.74;99500.77;1720345;83;21010;-41
2021/04/07 01:02:25;;;;;;;23.83;14.07;;;;;;;5.66;83.04;99494.77;1720287;83;21406;-42
2021/04/07 01:04:52;;;;;;;29.67;15.58;;;;;;;5.66;83.10;99498.16;1720034;83;21567;-43
2021/04/07 01:07:20;;;;;;;24.10;16.27;;;;;;;5.66;83.10;99489.17;1719797;83;20975;-40
2021/04/07 01:09:49;;;;;;;30.70;18.80;;;;;;;5.66;83.10;99493.03;1719805;83;21046;-42
2021/04/07 01:12:16;;;;;;;28.55;16.65;;;;;;;5.67;83.19;99488.30;1719791;83;21066;-42
2021/04/07 01:14:44;;;;;;;25.02;15.20;;;;;;;5.67;83.19;99479.77;1719764;83;21205;-41
2021/04/07 01:17:13;;;;;;;28.98;14.43;;;;;;;5.67;83.16;99468.21;1719702;83;21042;-41
2021/04/07 01:19:42;;;;;;;31.50;16.27;;;;;;;5.67;83.15;99466.48;1719949;83;21505;-42
2021/04/07 01:22:10;;;;;;;32.58;17.77;;;;;;;5.67;83.11;99457.48;1693736;83;21666;-43
2021/04/07 01:24:37;;;;;;;28.32;16.02;;;;;;;5.66;83.20;99449.38;1719743;83;20987;-43
2021/04/07 01:27:05;;;;;;;29.50;15.18;;;;;;;5.65;83.15;99436.13;1719752;83;21153;-42
2021/04/07 01:29:33;;;;;;;25.17;14.58;;;;;;;5.65;83.24;99434.84;1719665;83;20992;-42
2021/04/07 01:32:00;;;;;;;31.68;16.70;;;;;;;5.65;83.27;99433.55;1719811;83;21014;-42
2021/04/07 01:34:31;;;;;;;26.95;16.75;;;;;;;5.65;83.33;99428.87;1719698;83;21057;-43
2021/04/07 01:37:00;;;;;;;33.02;17.48;;;;;;;5.64;83.35;99419.47;1719814;82;21769;-43
2021/04/07 01:39:30;;;;;;;25.27;13.90;;;;;;;5.64;83.36;99411.32;1719726;83;21336;-42
2021/04/07 01:41:58;;;;;;;26.33;15.70;;;;;;;5.64;83.36;99424.16;1719739;83;20975;-42
2021/04/07 01:44:25;;;;;;;33.20;18.20;;;;;;;5.66;83.38;99412.14;1719798;83;21050;-43
2021/04/07 01:46:53;;;;;;;31.60;18.30;;;;;;;5.66;83.35;99410.86;1719774;83;21030;-42
2021/04/07 01:49:22;;;;;;;32.03;17.77;;;;;;;5.68;83.33;99399.30;1719744;83;21011;-42
2021/04/07 01:51:49;;;;;;;36.53;17.25;;;;;;;5.66;83.05;99390.77;1719766;82;22246;-42
2021/04/07 01:54:17;;;;;;;24.43;15.83;;;;;;;5.69;83.38;99399.70;1713070;83;21039;-43
2021/04/07 01:56:50;;;;;;;26.90;16.30;;;;;;;5.67;83.84;99385.59;1706279;84;20940;-42
2021/04/07 01:59:23;;;;;;;30.40;17.37;;;;;;;5.67;83.84;99385.59;1706238;84;20999;-41
2021/04/07 02:01:51;;;;;;;31.75;19.73;;;;;;;5.66;83.67;99385.19;1706279;83;21003;-42
2021/04/07 02:04:19;;;;;;;32.00;18.98;;;;;;;5.65;83.69;99391.19;1706270;84;22268;-43
2021/04/07 02:06:47;;;;;;;29.05;16.65;;;;;;;5.66;83.68;99386.47;1706148;84;20951;-42
2021/04/07 02:09:16;;;;;;;26.23;16.77;;;;;;;5.67;83.61;99384.31;1706190;83;21454;-43
2021/04/07 02:11:47;;;;;;;40.90;19.80;;;;;;;5.67;83.68;99390.73;1706255;84;21603;-42
2021/04/07 02:14:21;;;;;;;32.65;18.92;;;;;;;5.66;83.57;99377.93;1706179;84;21011;-43
2021/04/07 02:16:56;;;;;;;32.78;17.55;;;;;;;5.66;83.76;99379.22;1706184;84;21378;-42
2021/04/07 02:19:27;;;;;;;30.40;15.80;;;;;;;5.66;83.77;99376.65;1706195;84;21604;-43
2021/04/07 02:22:08;;;;;;;30.52;18.52;;;;;;;5.65;83.79;99379.63;1706182;84;21023;-42
2021/04/07 02:24:39;;;;;;;30.60;18.92;;;;;;;5.66;83.84;99384.35;1706129;84;21038;-42
2021/04/07 02:27:14;;;;;;;28.62;18.02;;;;;;;5.68;83.88;99386.45;1706351;84;21504;-41
2021/04/07 02:29:44;;;;;;;;;;;;;;;5.67;83.86;99370.64;1708676;84;21023;-42
2021/04/07 02:32:12;;;;;;;40.70;19.25;;;;;;;5.66;83.92;99365.09;1706131;84;20188;-42
2021/04/07 02:34:41;;;;;;;35.25;19.80;;;;;;;5.64;83.92;99363.82;1706088;84;21023;-41
2021/04/07 02:37:16;;;;;;;36.08;18.85;;;;;;;5.62;83.94;99373.27;1706122;82;20979;-42
2021/04/07 02:39:45;;;;;;;35.55;17.57;;;;;;;5.62;83.96;99360.43;1706160;83;21067;-42
2021/04/07 02:42:14;;;;;;;30.95;17.35;;;;;;;5.61;83.95;99345.90;1706334;84;22390;-42
2021/04/07 02:44:41;;;;;;;29.23;18.20;;;;;;;5.62;83.92;99346.31;1706098;83;21086;-42
2021/04/07 02:47:10;;;;;;;42.90;19.02;;;;;;;5.61;83.91;99349.33;1706153;84;21051;-42
2021/04/07 02:49:37;;;;;;;31.00;18.65;;;;;;;5.61;83.96;99352.31;1706273;83;21481;-42
2021/04/07 02:52:05;;;;;;;34.83;16.87;;;;;;;5.63;83.95;99361.29;1706282;84;21047;-43
2021/04/07 02:54:33;;;;;;;31.95;18.65;;;;;;;5.65;83.96;99356.98;1712367;83;21368;-40
2021/04/07 02:57:04;;;;;;;29.52;18.12;;;;;;;5.67;83.99;99359.08;1719690;83;21014;-41
2021/04/07 02:59:33;;;;;;;34.40;19.85;;;;;;;5.68;84.04;99364.62;1719775;83;21595;-42
2021/04/07 03:02:02;;;;;;;39.73;19.75;;;;;;;5.68;84.03;99368.48;1719749;83;21646;-42
2021/04/07 03:04:31;;;;;;;28.27;15.80;;;;;;;5.69;83.99;99358.63;1719814;83;21488;-41
2021/04/07 03:06:59;;;;;;;29.45;17.65;;;;;;;5.72;83.98;99358.57;1719704;83;21355;-42
2021/04/07 03:09:26;;;;;;;33.50;19.40;;;;;;;5.74;83.93;99365.39;1719640;83;20963;-42
2021/04/07 03:11:54;;;;;;;31.65;19.07;;;;;;;5.77;83.92;99370.06;1719590;83;20987;-42
2021/04/07 03:14:23;;;;;;;34.15;19.48;;;;;;;5.78;83.96;99364.05;1719675;83;21015;-42
2021/04/07 03:16:51;;;;;;;27.80;15.68;;;;;;;5.82;83.71;99365.69;1719745;83;21176;-41
2021/04/07 03:19:19;;;;;;;29.80;19.42;;;;;;;5.83;83.77;99351.55;1719802;83;21150;-42
2021/04/07 03:21:46;;;;;;;33.35;19.95;;;;;;;5.85;83.69;99352.80;1719677;83;20919;-42
2021/04/07 03:24:14;;;;;;;30.12;18.07;;;;;;;5.83;83.67;99348.13;1719639;83;21011;-42
2021/04/07 03:26:42;;;;;;;28.77;17.30;;;;;;;5.84;83.69;99349.39;1719655;83;21010;-42
2021/04/07 03:29:10;;;;;;;30.68;17.95;;;;;;;5.85;83.67;99352.38;1719723;83;20947;-42
2021/04/07 03:31:38;;;;;;;37.95;18.90;;;;;;;5.88;83.67;99351.45;1719628;83;21209;-41
2021/04/07 03:34:05;;;;;;;40.95;19.07;;;;;;;5.90;83.62;99343.28;1719588;83;21124;-42
2021/04/07 03:36:33;;;;;;;28.35;17.17;;;;;;;5.92;83.59;99329.14;1719683;82;20971;-42
2021/04/07 03:39:00;;;;;;;31.65;20.43;;;;;;;5.92;83.50;99333.00;1719657;83;20951;-41
2021/04/07 03:41:29;;;;;;;32.88;20.75;;;;;;;5.91;83.58;99342.41;1719768;83;21038;-40
2021/04/07 03:43:57;;;;;;;31.70;18.52;;;;;;;5.92;83.56;99340.70;1719714;83;21210;-42
2021/04/07 03:46:24;;;;;;;28.85;17.73;;;;;;;5.94;83.50;99335.97;1719619;83;21058;-41
2021/04/07 03:48:53;;;;;;;39.15;21.45;;;;;;;5.95;83.50;99327.38;1719648;83;20986;-42
2021/04/07 03:51:21;;;;;;;32.30;17.70;;;;;;;5.96;83.49;99330.36;1719677;83;20982;-42
2021/04/07 03:53:49;;;;;;;36.55;19.10;;;;;;;5.94;83.59;99330.83;1719372;83;21634;-42
2021/04/07 03:56:16;;;;;;;38.08;17.32;;;;;;;5.91;83.78;99338.55;1706118;84;21309;-41
2021/04/07 03:58:44;;;;;;;32.20;15.35;;;;;;;5.93;83.92;99337.27;1706076;84;21074;-41
2021/04/07 04:01:11;;;;;;;30.48;16.75;;;;;;;5.93;83.89;99331.67;1706160;84;21046;-41
2021/04/07 04:03:39;;;;;;;39.00;20.97;;;;;;;5.96;84.01;99330.36;1706039;84;21109;-41
2021/04/07 04:06:07;;;;;;;40.05;21.37;;;;;;;5.98;84.01;99326.04;1706113;84;20999;-41
2021/04/07 04:08:34;;;;;;;37.33;19.27;;;;;;;6.00;84.06;99324.29;1706127;84;21268;-42
2021/04/07 04:11:04;;;;;;;40.03;19.60;;;;;;;6.01;84.12;99320.02;1706107;84;20964;-41
2021/04/07 04:13:33;;;;;;;36.15;19.27;;;;;;;6.02;84.07;99316.14;1706048;84;20981;-41
2021/04/07 04:16:00;;;;;;;40.15;22.98;;;;;;;6.04;84.10;99306.69;1706073;84;21083;-42
2021/04/07 04:18:28;;;;;;;53.20;27.15;;;;;;;6.08;84.10;99301.06;1706147;84;21035;-41
2021/04/07 04:20:56;;;;;;;48.98;25.00;;;;;;;6.10;84.02;99301.02;1706147;84;21199;-42
2021/04/07 04:23:24;;;;;;;55.92;26.25;;;;;;;6.06;84.16;99292.97;1706164;84;20996;-42
2021/04/07 04:25:51;;;;;;;57.50;27.45;;;;;;;6.07;84.21;99289.52;1706142;84;21027;-42
2021/04/07 04:28:20;;;;;;;60.00;29.80;;;;;;;6.08;84.40;99287.36;1706069;84;21063;-43
2021/04/07 04:30:47;;;;;;;61.63;32.17;;;;;;;6.10;84.43;99288.17;1706159;82;20956;-42
2021/04/07 04:33:15;;;;;;;61.28;31.23;;;;;;;6.14;84.31;99286.81;1706119;84;21381;-42
2021/04/07 04:35:43;;;;;;;65.40;29.75;;;;;;;6.16;84.39;99287.63;1706018;82;21047;-42
2021/04/07 04:38:10;;;;;;;59.98;29.72;;;;;;;6.21;84.32;99290.13;1686194;84;21023;-41
2021/04/07 04:40:38;;;;;;;78.83;33.05;;;;;;;6.26;84.31;99302.86;1706149;84;21051;-42
2021/04/07 04:43:06;;;;;;;67.65;34.13;;;;;;;6.30;84.28;99306.64;1706313;84;21079;-42
2021/04/07 04:45:36;;;;;;;71.30;33.18;;;;;;;6.32;84.23;99305.34;1706282;84;21295;-42
2021/04/07 04:48:05;;;;;;;77.78;31.65;;;;;;;6.36;84.19;99291.55;1706248;82;21099;-42
2021/04/07 04:50:33;;;;;;;75.20;30.05;;;;;;;6.40;84.13;99298.31;1706251;84;21015;-41
2021/04/07 04:53:01;;;;;;;77.22;33.92;;;;;;;6.42;84.09;99295.27;1706255;84;21011;-42
2021/04/07 04:55:28;;;;;;;65.12;30.70;;;;;;;6.49;84.08;99295.14;1706152;83;20944;-42
2021/04/07 04:57:56;;;;;;;72.15;31.07;;;;;;;6.54;83.96;99295.89;1706290;82;21253;-42
2021/04/07 05:00:24;;;;;;;63.45;26.87;;;;;;;6.56;83.79;99296.28;1706169;83;20972;-43
2021/04/07 05:02:53;;;;;;;68.60;27.00;;;;;;;6.59;83.71;99288.95;1706232;84;20971;-42
2021/04/07 05:05:22;;;;;;;63.25;30.25;;;;;;;6.58;83.58;99276.97;1706168;84;21022;-42
2021/04/07 05:07:50;;;;;;;57.90;26.55;;;;;;;6.56;83.73;99269.28;1706338;84;21011;-42
2021/04/07 05:10:17;;;;;;;71.97;28.70;;;;;;;6.62;83.78;99251.59;1706282;84;21389;-44
2021/04/07 05:12:46;;;;;;;52.95;24.00;;;;;;;6.66;83.76;99249.78;1706205;84;21003;-43
2021/04/07 05:15:15;;;;;;;55.03;24.02;;;;;;;6.74;83.66;99240.20;1706167;84;21079;-42
2021/04/07 05:17:42;;;;;;;53.17;24.82;;;;;;;6.81;83.29;99248.17;1706176;83;21047;-42
2021/04/07 05:20:12;;;;;;;54.93;26.00;;;;;;;6.80;83.17;99243.05;1706277;84;21078;-42
2021/04/07 05:22:40;;;;;;;54.20;22.22;;;;;;;6.84;82.84;99239.10;1706227;83;21482;-42
2021/04/07 05:25:09;;;;;;;50.33;21.73;;;;;;;6.75;82.93;99251.72;1706208;84;21059;-42
2021/04/07 05:27:36;;;;;;;47.83;24.82;;;;;;;6.76;83.17;99246.98;1706236;84;20948;-42
2021/04/07 05:30:07;;;;;;;51.30;24.55;;;;;;;6.82;82.99;99249.87;1706238;84;20956;-42
2021/04/07 05:32:35;;;;;;;45.33;23.27;;;;;;;6.78;82.97;99253.81;1706240;84;21031;-42
2021/04/07 05:35:04;;;;;;;44.83;22.42;;;;;;;6.74;83.09;99270.61;1706131;82;21371;-42
2021/04/07 05:37:31;;;;;;;48.05;21.60;;;;;;;6.81;83.14;99266.61;1706127;84;21019;-43
2021/04/07 05:40:00;;;;;;;44.88;21.75;;;;;;;6.86;83.18;99263.06;1706222;84;21027;-42
2021/04/07 05:42:27;;;;;;;50.60;22.77;;;;;;;6.93;82.98;99265.06;1706252;84;20979;-44
2021/04/07 05:44:55;;;;;;;48.95;21.40;;;;;;;6.99;82.85;99264.09;1706252;84;21031;-41
2021/04/07 05:47:23;;;;;;;43.00;20.00;;;;;;;7.05;82.75;99265.23;1706207;84;21127;-42
2021/04/07 05:49:51;;;;;;;35.25;18.27;;;;;;;7.10;82.49;99268.53;1706208;84;21552;-42
2021/04/07 05:52:18;;;;;;;49.77;22.32;;;;;;;7.17;82.35;99275.69;1706249;84;20916;-43
2021/04/07 05:54:46;;;;;;;47.65;20.30;;;;;;;7.17;82.21;99276.97;1707812;83;21082;-43
2021/04/07 05:57:14;;;;;;;42.75;20.37;;;;;;;7.20;82.16;99271.75;1719706;83;21007;-42
2021/04/07 05:59:42;;;;;;;34.67;17.77;;;;;;;7.28;82.08;99270.28;1719726;83;21208;-43
2021/04/07 06:02:09;;;;;;;44.40;20.02;;;;;;;7.34;81.93;99273.99;1719715;83;21155;-41
2021/04/07 06:04:37;;;;;;;53.10;21.87;;;;;;;7.42;81.81;99272.53;1719750;83;21019;-42
2021/04/07 06:07:06;;;;;;;60.30;21.07;;;;;;;7.49;81.54;99274.06;1719699;83;21002;-43
2021/04/07 06:09:35;;;;;;;62.25;22.17;;;;;;;7.55;81.21;99276.94;1719714;83;20955;-42
2021/04/07 06:12:03;;;;;;;50.92;19.92;;;;;;;7.61;81.03;99281.50;1719739;83;21200;-41
2021/04/07 06:14:31;;;;;;;48.15;20.60;;;;;;;7.68;80.73;99287.31;1719631;83;21026;-43
2021/04/07 06:16:59;;;;;;;49.60;20.20;;;;;;;7.73;80.53;99287.21;1719870;83;20943;-42
2021/04/07 06:19:26;;;;;;;54.58;23.15;;;;;;;7.74;80.31;99288.48;1719696;82;21050;-43
2021/04/07 06:21:54;;;;;;;54.70;22.22;;;;;;;7.68;80.27;99277.47;1719668;83;20960;-43
2021/04/07 06:24:21;;;;;;;49.45;19.82;;;;;;;7.64;80.28;99273.29;1719731;83;21252;-43
2021/04/07 06:26:49;;;;;;;62.40;22.15;;;;;;;7.65;80.26;99257.78;1719695;82;21046;-41
2021/04/07 06:29:17;;;;;;;49.95;22.17;;;;;;;7.62;80.28;99243.27;1719718;83;21054;-42
2021/04/07 06:31:44;;;;;;;54.05;20.97;;;;;;;7.70;80.27;99230.16;1719647;83;20947;-43
2021/04/07 06:34:12;;;;;;;52.58;21.00;;;;;;;7.83;79.92;99222.13;1719713;83;21023;-42
2021/04/07 06:36:40;;;;;;;48.30;22.67;;;;;;;7.89;79.57;99217.66;1719671;82;22392;-44
2021/04/07 06:39:08;;;;;;;57.48;24.50;;;;;;;7.96;79.40;99220.92;1719700;83;21006;-44
2021/04/07 06:41:36;;;;;;;42.85;21.73;;;;;;;8.02;79.14;99211.73;1719662;82;21062;-43
2021/04/07 06:44:06;;;;;;;56.63;23.20;;;;;;;8.07;78.91;99219.77;1719718;83;21050;-43
2021/04/07 06:46:33;;;;;;;65.80;22.32;;;;;;;8.06;78.74;99221.48;1693137;83;20971;-43
2021/04/07 06:49:01;;;;;;;40.85;22.73;;;;;;;8.02;78.54;99241.36;1719678;83;21272;-43
2021/04/07 06:51:29;;;;;;;49.55;24.90;;;;;;;7.86;78.42;99249.09;1719707;83;21126;-42
2021/04/07 06:53:57;;;;;;;52.05;25.02;;;;;;;7.68;78.77;99261.56;1719705;83;20967;-42
2021/04/07 06:56:25;;;;;;;44.18;23.42;;;;;;;7.62;79.17;99270.73;1710635;83;20912;-42
2021/04/07 06:58:52;;;;;;;48.52;21.77;;;;;;;7.61;79.39;99274.20;1706193;83;21079;-42
2021/04/07 07:01:20;;;;;;;47.13;21.82;;;;;;;7.60;79.33;99276.37;1706152;82;21211;-43
2021/04/07 07:03:48;;;;;;;53.90;25.27;;;;;;;7.55;79.50;99274.36;1706091;84;21031;-42
2021/04/07 07:06:16;;;;;;;48.83;24.30;;;;;;;7.51;79.73;99277.90;1706176;84;20999;-42
2021/04/07 07:08:48;;;;;;;53.70;25.35;;;;;;;7.46;79.80;99268.56;1664204;84;21082;-42
2021/04/07 07:11:18;;;;;;;50.08;22.60;;;;;;;7.41;79.97;99273.41;1706174;84;21055;-42
2021/04/07 07:13:47;;;;;;;46.28;22.70;;;;;;;7.37;80.16;99271.34;1706187;83;21063;-43
2021/04/07 07:16:28;;;;;;;46.53;23.12;;;;;;;7.37;80.28;99276.49;1663717;84;20948;-42
2021/04/07 07:18:55;;;;;;;52.83;25.00;;;;;;;7.34;80.38;99284.30;1706164;84;20991;-43
2021/04/07 07:21:25;;;;;;;55.33;23.57;;;;;;;7.29;80.52;99283.56;1706113;84;21003;-42
2021/04/07 07:23:56;;;;;;;53.78;21.37;;;;;;;7.30;80.69;99264.20;1706196;84;21000;-42
2021/04/07 07:26:23;;;;;;;36.30;19.62;;;;;;;7.33;80.56;99261.58;1706113;83;21211;-44
2021/04/07 07:28:54;;;;;;;43.30;22.10;;;;;;;7.42;80.73;99261.77;1706112;83;21007;-44
2021/04/07 07:31:29;;;;;;;49.55;23.05;;;;;;;7.45;80.62;99256.57;1706137;83;21058;-42
2021/04/07 07:34:00;;;;;;;41.02;22.58;;;;;;;7.43;80.43;99257.02;1706345;84;21620;-44
2021/04/07 07:36:29;;;;;;;58.40;24.55;;;;;;;7.40;80.39;99255.81;1706148;82;21648;-43
2021/04/07 07:38:58;;;;;;;50.58;25.90;;;;;;;7.41;80.66;99249.78;1706144;82;22364;-43
2021/04/07 07:41:30;;;;;;;50.23;22.40;;;;;;;7.45;80.68;99246.27;1706084;84;21019;-42
2021/04/07 07:44:00;;;;;;;44.48;21.60;;;;;;;7.55;80.61;99251.18;1703548;82;21059;-41
2021/04/07 07:46:28;;;;;;;64.32;26.35;;;;;;;7.64;80.22;99252.69;1706110;83;20940;-42
2021/04/07 07:48:59;;;;;;;55.52;25.37;;;;;;;7.71;80.02;99246.48;1706035;84;21007;-43
2021/04/07 07:51:27;;;;;;;47.27;25.45;;;;;;;7.83;79.74;99238.87;1706138;84;21255;-43
2021/04/07 07:53:55;;;;;;;55.60;24.43;;;;;;;7.91;79.49;99240.79;1706055;83;21114;-42
2021/04/07 07:56:25;;;;;;;42.23;20.55;;;;;;;7.99;79.13;99238.87;1712967;83;21031;-42
2021/04/07 07:58:53;;;;;;;63.05;26.10;;;;;;;8.06;78.69;99236.95;1692145;83;21011;-42
2021/04/07 08:01:23;;;;;;;53.83;25.17;;;;;;;8.08;78.45;99238.21;1716005;83;20975;-43
2021/04/07 08:03:50;;;;;;;51.55;25.08;;;;;;;8.10;78.34;99245.03;1719608;83;21136;-44
2021/04/07 08:06:18;;;;;;;47.93;23.30;;;;;;;8.15;77.98;99253.91;1693139;83;21407;-44
2021/04/07 08:08:47;;;;;;;56.68;23.02;;;;;;;8.24;77.45;99253.66;1719645;83;21054;-43
2021/04/07 08:11:16;;;;;;;52.70;24.10;;;;;;;8.40;77.42;99251.92;1719631;83;21031;-43
2021/04/07 08:13:45;;;;;;;52.55;24.32;;;;;;;8.55;77.03;99250.23;1719657;83;20971;-42
2021/04/07 08:16:16;;;;;;;42.60;23.73;;;;;;;8.60;76.41;99250.94;1719720;83;21377;-43
2021/04/07 08:18:48;;;;;;;44.70;21.35;;;;;;;8.66;75.87;99238.31;1719726;83;21698;-43
2021/04/07 08:21:17;;;;;;;46.58;23.30;;;;;;;8.84;75.83;99229.16;1719915;83;21346;-43
2021/04/07 08:23:46;;;;;;;46.40;24.45;;;;;;;9.01;75.04;99231.21;1719862;83;21018;-42
2021/04/07 08:26:15;;;;;;;42.45;21.85;;;;;;;9.16;74.60;99230.34;1693804;83;20916;-42
2021/04/07 08:28:43;;;;;;;45.67;23.45;;;;;;;9.07;73.13;99240.50;1719832;83;21655;-43
2021/04/07 08:31:14;;;;;;;46.08;22.17;;;;;;;8.98;73.72;99242.09;1719823;82;21148;-42
2021/04/07 08:33:47;;;;;;;48.52;20.37;;;;;;;8.94;73.41;99235.31;1719756;83;21031;-43
2021/04/07 08:36:17;;;;;;;47.85;22.75;;;;;;;8.99;73.88;99238.63;1719679;82;21660;-42
2021/04/07 08:38:46;;;;;;;66.00;25.35;;;;;;;9.07;73.35;99235.34;1719784;83;20967;-43
2021/04/07 08:41:22;;;;;;;44.45;21.23;;;;;;;9.09;73.14;99229.69;1719776;83;21277;-42
2021/04/07 08:43:53;;;;;;;42.88;20.23;;;;;;;9.06;72.84;99230.61;1719862;83;21074;-42
2021/04/07 08:46:28;;;;;;;41.15;20.62;;;;;;;9.01;72.50;99235.55;1719856;83;20963;-41
2021/04/07 08:48:56;;;;;;;37.60;19.27;;;;;;;8.94;72.68;99232.30;1719855;83;20935;-42
2021/04/07 08:51:26;;;;;;;44.42;20.25;;;;;;;8.96;72.73;99231.81;1719852;83;21086;-43
2021/04/07 08:53:57;;;;;;;44.13;21.68;;;;;;;9.06;72.76;99238.82;1693877;83;21222;-43
2021/04/07 08:56:30;;;;;;;48.63;23.07;;;;;;;9.11;72.11;99231.77;1714396;83;21110;-43
2021/04/07 08:59:03;;;;;;;40.50;18.40;;;;;;;9.26;71.95;99229.14;1706342;84;20939;-42
2021/04/07 09:01:34;;;;;;;33.48;16.07;;;;;;;9.53;71.29;99220.08;1706223;82;20999;-43
2021/04/07 09:04:13;;;;;;;35.30;18.42;;;;;;;9.84;70.32;99222.06;1706340;84;21540;-42
2021/04/07 09:06:43;;;;;;;38.65;17.90;;;;;;;10.19;69.66;99213.48;1706303;83;21675;-43
2021/04/07 09:09:11;;;;;;;29.32;17.57;;;;;;;10.49;68.65;99197.30;1704474;84;21030;-42
2021/04/07 09:11:42;;;;;;;42.17;20.77;;;;;;;10.63;67.75;99198.53;1706259;83;20952;-43
2021/04/07 09:14:09;;;;;;;37.15;17.73;;;;;;;10.97;66.80;99201.08;1687030;84;21070;-42
2021/04/07 09:16:40;;;;;;;32.98;18.67;;;;;;;10.96;65.50;99192.92;1664064;84;21083;-43
2021/04/07 09:19:21;;;;;;;33.05;18.50;;;;;;;11.01;65.32;99193.57;1706190;84;21376;-42
2021/04/07 09:22:06;;;;;;;64.03;20.43;;;;;;;11.38;65.06;99183.91;1706210;84;21031;-42
2021/04/07 09:24:40;;;;;;;29.52;17.87;;;;;;;11.75;64.17;99179.73;1706209;83;20971;-43
2021/04/07 09:27:20;;;;;;;30.10;15.78;;;;;;;11.96;62.70;99182.30;1706240;84;20968;-41
2021/04/07 09:29:47;;;;;;;38.05;18.15;;;;;;;11.96;61.30;99178.41;1706248;84;21073;-42
2021/04/07 09:32:17;;;;;;;28.50;16.67;;;;;;;12.08;61.74;99177.87;1706318;84;21378;-43
2021/04/07 09:34:45;;;;;;;31.27;18.10;;;;;;;12.15;61.07;99172.82;1706260;84;21055;-43
2021/04/07 09:37:14;;;;;;;35.73;18.42;;;;;;;12.13;61.18;99169.89;1706210;82;21031;-43
2021/04/07 09:39:41;;;;;;;31.85;18.37;;;;;;;12.40;61.32;99169.09;1706209;84;21126;-43
2021/04/07 09:42:10;;;;;;;43.55;17.02;;;;;;;12.71;60.01;99164.19;1706230;84;20952;-43
2021/04/07 09:44:38;;;;;;;28.47;13.45;;;;;;;12.82;58.87;99164.53;1706237;83;21425;-44
2021/04/07 09:47:05;;;;;;;38.83;14.78;;;;;;;12.75;58.03;99161.83;1706146;84;21035;-43
2021/04/07 09:49:34;;;;;;;48.48;15.80;;;;;;;12.71;58.71;99164.19;1706183;84;21078;-44
2021/04/07 09:52:02;;;;;;;17.90;12.03;;;;;;;12.69;59.25;99164.28;1706219;84;20989;-44
2021/04/07 09:54:33;;;;;;;24.67;13.28;;;;;;;12.71;57.82;99168.95;1706333;82;20936;-42
2021/04/07 09:57:11;;;;;;;29.32;12.73;;;;;;;12.82;57.46;99163.68;1712943;83;21429;-42
2021/04/07 09:59:49;;;;;;;21.30;12.30;;;;;;;12.91;56.44;99164.08;1719713;83;20951;-42
2021/04/07 10:02:29;;;;;;;35.58;12.88;;;;;;;13.02;57.34;99164.85;1719768;83;20908;-42
2021/04/07 10:04:58;;;;;;;42.90;14.00;;;;;;;13.30;55.31;99158.76;1717973;82;21066;-43
2021/04/07 10:07:30;;;;;;;33.88;12.15;;;;;;;13.34;56.86;99151.18;1719744;83;20991;-43
2021/04/07 10:09:59;;;;;;;19.75;11.10;;;;;;;13.63;55.03;99136.70;1693752;83;21211;-43
2021/04/07 10:12:29;;;;;;;25.82;11.90;;;;;;;14.00;53.07;99132.61;1719694;82;21619;-42
2021/04/07 10:14:58;;;;;;;14.43;10.45;;;;;;;14.12;53.04;99128.98;1719658;82;20904;-44
2021/04/07 10:17:30;;;;;;;17.67;11.40;;;;;;;14.35;51.76;99135.08;1719712;83;21121;-42
2021/04/07 10:20:11;;;;;;;24.65;11.63;;;;;;;14.77;50.15;99131.92;1719732;83;21155;-42
2021/04/07 10:22:42;;;;;;;31.05;11.00;;;;;;;14.90;49.72;99140.73;1719799;83;21345;-42
2021/04/07 10:25:16;;;;;;;16.10;11.00;;;;;;;14.90;49.23;99145.09;1718698;83;21195;-43
2021/04/07 10:27:45;;;;;;;21.23;10.93;;;;;;;15.15;48.96;99138.46;1719721;83;20989;-42
2021/04/07 10:30:19;;;;;;;54.63;14.13;;;;;;;15.22;49.10;99141.93;1719667;83;21006;-43
2021/04/07 10:32:49;;;;;;;30.48;12.82;;;;;;;15.29;48.84;99144.20;1719880;82;20998;-43
2021/04/07 10:35:23;;;;;;;17.45;10.55;;;;;;;15.35;49.15;99138.13;1719651;82;21604;-44
2021/04/07 10:38:01;;;;;;;12.93;9.15;;;;;;;15.40;47.86;99143.08;1719631;83;21062;-42
2021/04/07 10:40:32;;;;;;;22.27;9.30;;;;;;;15.23;46.86;99145.39;1719681;83;20975;-43
2021/04/07 10:43:18;;;;;;;15.90;9.10;;;;;;;14.53;46.62;99150.61;1719461;82;20962;-44
2021/04/07 10:45:58;;;;;;;36.70;10.43;;;;;;;14.11;46.96;99153.33;1719847;83;21035;-42
2021/04/07 10:48:25;;;;;;;13.65;9.30;;;;;;;13.62;49.47;99158.42;1718526;83;21441;-44
2021/04/07 10:50:53;;;;;;;26.17;10.53;;;;;;;13.49;48.99;99160.81;1719649;83;21074;-43
2021/04/07 10:53:36;;;;;;;29.27;11.45;;;;;;;13.48;50.20;99155.70;1719745;83;20959;-42
2021/04/07 10:56:18;;;;;;;16.55;10.35;;;;;;;13.55;51.81;99154.94;1719626;83;21058;-43
2021/04/07 10:59:00;;;;;;;20.15;11.15;;;;;;;13.88;50.31;99147.59;1719770;83;21531;-43
2021/04/07 11:01:35;;;;;;;25.57;11.25;;;;;;;14.31;49.71;99140.08;1719680;83;21370;-43
2021/04/07 11:04:15;;;;;;;28.17;11.48;;;;;;;14.76;48.93;99131.55;1719642;82;21022;-43
2021/04/07 11:06:43;;;;;;;16.20;10.40;;;;;;;15.04;48.27;99137.33;1719480;83;21594;-43
2021/04/07 11:09:14;;;;;;;14.45;10.30;;;;;;;14.90;46.39;99138.58;1719652;83;20999;-43
2021/04/07 11:11:43;;;;;;;14.70;10.48;;;;;;;14.41;46.93;99127.84;1719749;83;21018;-43
2021/04/07 11:14:10;;;;;;;24.35;11.10;;;;;;;14.19;48.75;99116.86;1719675;83;21381;-42
2021/04/07 11:16:40;;;;;;;15.15;9.50;;;;;;;14.55;48.63;99111.00;1719641;83;21646;-43
2021/04/07 11:19:15;;;;;;;19.37;10.00;;;;;;;14.86;46.45;99126.21;1719655;83;20999;-43
2021/04/07 11:21:46;;;;;;;17.10;11.40;;;;;;;14.83;45.48;99135.51;1719851;83;25770;-44
2021/04/07 11:24:15;;;;;;;19.82;11.00;;;;;;;14.62;46.25;99133.61;1719670;83;21061;-43
2021/04/07 11:26:43;;;;;;;27.13;10.48;;;;;;;14.45;46.85;99141.06;1719654;83;21365;-42
2021/04/07 11:29:11;;;;;;;27.10;10.90;;;;;;;14.16;46.74;99148.27;1719606;82;21061;-43
2021/04/07 11:31:39;;;;;;;23.75;10.43;;;;;;;14.25;47.11;99151.28;1719687;83;21030;-43
2021/04/07 11:34:10;;;;;;;17.52;9.85;;;;;;;14.44;46.25;99157.16;1719683;83;20967;-45
2021/04/07 11:36:47;;;;;;;20.12;10.75;;;;;;;14.65;45.42;99156.87;1719575;82;21014;-43